DAL8635 KSFO-KLAX
Flight info
| Callsign | DAL8635 |
|---|---|
| Flight time | 0h 55m |
| Altitude | 35000 |
| Route | WESLA5 SUSEY EBAYE BURGL IRNMN2 |
| Aircraft | A321/M-SDE3FGHIRWY/LB1 |
Departure
| Time | 2026-04-26 19:26 |
|---|---|
| Airport | San Francisco International Airport (KSFO) |
Arrival
| Time | 2026-04-26 20:21 |
|---|---|
| Airport | Los Angeles International Airport (KLAX) |
| Time | Latitude | Longitude | Altitude | Speed | Heading |
|---|---|---|---|---|---|
| 2026-04-26 18:58 | 37.61515 | -122.38188 | 21 ft | 0 kts | 252° |
| 2026-04-26 19:16 | 37.61520 | -122.38169 | 21 ft | 4 kts | 252° |
| 2026-04-26 19:16 | 37.61528 | -122.38137 | 22 ft | 4 kts | 252° |
| 2026-04-26 19:16 | 37.61535 | -122.38109 | 24 ft | 3 kts | 253° |
| 2026-04-26 19:16 | 37.61538 | -122.38079 | 21 ft | 4 kts | 294° |
| 2026-04-26 19:17 | 37.61523 | -122.38063 | 24 ft | 4 kts | 6° |
| 2026-04-26 19:17 | 37.61499 | -122.38074 | 22 ft | 4 kts | 27° |
| 2026-04-26 19:17 | 37.61477 | -122.38087 | 22 ft | 1 kts | 26° |
| 2026-04-26 19:17 | 37.61476 | -122.38088 | 22 ft | 0 kts | 26° |
| 2026-04-26 19:20 | 37.61477 | -122.38087 | 22 ft | 1 kts | 26° |
| 2026-04-26 19:20 | 37.61537 | -122.38048 | 21 ft | 18 kts | 27° |
| 2026-04-26 19:21 | 37.61649 | -122.37970 | 21 ft | 18 kts | 38° |
| 2026-04-26 19:21 | 37.61671 | -122.37835 | 21 ft | 16 kts | 96° |
| 2026-04-26 19:21 | 37.61659 | -122.37703 | 21 ft | 15 kts | 97° |
| 2026-04-26 19:21 | 37.61644 | -122.37552 | 21 ft | 18 kts | 97° |
| 2026-04-26 19:22 | 37.61628 | -122.37405 | 21 ft | 16 kts | 97° |
| 2026-04-26 19:22 | 37.61612 | -122.37269 | 21 ft | 15 kts | 105° |
| 2026-04-26 19:22 | 37.61570 | -122.37156 | 21 ft | 13 kts | 117° |
| 2026-04-26 19:22 | 37.61514 | -122.37025 | 21 ft | 20 kts | 119° |
| 2026-04-26 19:23 | 37.61443 | -122.36893 | 21 ft | 17 kts | 131° |
| 2026-04-26 19:23 | 37.61368 | -122.36781 | 21 ft | 16 kts | 123° |
| 2026-04-26 19:23 | 37.61316 | -122.36662 | 21 ft | 15 kts | 119° |
| 2026-04-26 19:23 | 37.61270 | -122.36553 | 22 ft | 14 kts | 117° |
| 2026-04-26 19:24 | 37.61228 | -122.36452 | 22 ft | 13 kts | 118° |
| 2026-04-26 19:24 | 37.61171 | -122.36319 | 22 ft | 21 kts | 118° |
| 2026-04-26 19:24 | 37.61052 | -122.36012 | 21 ft | 18 kts | 96° |
| 2026-04-26 19:25 | 37.61105 | -122.35897 | 21 ft | 11 kts | 31° |
| 2026-04-26 19:25 | 37.61128 | -122.35883 | 21 ft | 11 kts | 21° |
| 2026-04-26 19:25 | 37.61219 | -122.35950 | 21 ft | 13 kts | 298° |
| 2026-04-26 19:25 | 37.61322 | -122.36200 | 21 ft | 63 kts | 297° |
| 2026-04-26 19:26 | 37.61624 | -122.36917 | 21 ft | 119 kts | 297° |
| 2026-04-26 19:26 | 37.62079 | -122.37999 | 113 ft | 153 kts | 297° |
| 2026-04-26 19:26 | 37.62568 | -122.39148 | 753 ft | 148 kts | 297° |
| 2026-04-26 19:26 | 37.63052 | -122.40311 | 1402 ft | 148 kts | 296° |
| 2026-04-26 19:27 | 37.63529 | -122.41458 | 1991 ft | 150 kts | 296° |
| 2026-04-26 19:27 | 37.64064 | -122.42689 | 2254 ft | 170 kts | 297° |
| 2026-04-26 19:27 | 37.64678 | -122.44077 | 2410 ft | 193 kts | 297° |
| 2026-04-26 19:27 | 37.65372 | -122.45645 | 2629 ft | 217 kts | 298° |
| 2026-04-26 19:28 | 37.66132 | -122.47354 | 3342 ft | 226 kts | 298° |
| 2026-04-26 19:28 | 37.66822 | -122.49164 | 4050 ft | 238 kts | 281° |
| 2026-04-26 19:28 | 37.66652 | -122.51255 | 4706 ft | 250 kts | 244° |
| 2026-04-26 19:28 | 37.65451 | -122.52854 | 5474 ft | 260 kts | 210° |
| 2026-04-26 19:29 | 37.63660 | -122.53293 | 6279 ft | 272 kts | 175° |
| 2026-04-26 19:29 | 37.61819 | -122.52618 | 7076 ft | 282 kts | 155° |
| 2026-04-26 19:29 | 37.60251 | -122.51095 | 7897 ft | 289 kts | 136° |
| 2026-04-26 19:29 | 37.58840 | -122.49322 | 8730 ft | 293 kts | 136° |
| 2026-04-26 19:30 | 37.57391 | -122.47485 | 9550 ft | 297 kts | 136° |
| 2026-04-26 19:30 | 37.55924 | -122.45621 | 10238 ft | 305 kts | 136° |
| 2026-04-26 19:30 | 37.54367 | -122.43651 | 10453 ft | 329 kts | 136° |
| 2026-04-26 19:30 | 37.53251 | -122.42246 | 10627 ft | 342 kts | 136° |
| 2026-04-26 19:31 | 37.50989 | -122.39396 | 11423 ft | 351 kts | 136° |
| 2026-04-26 19:31 | 37.49252 | -122.37203 | 12108 ft | 356 kts | 136° |
| 2026-04-26 19:31 | 37.47490 | -122.34984 | 12826 ft | 360 kts | 136° |
| 2026-04-26 19:31 | 37.45706 | -122.32737 | 13529 ft | 365 kts | 136° |
| 2026-04-26 19:32 | 37.43896 | -122.30460 | 14120 ft | 370 kts | 136° |
| 2026-04-26 19:32 | 37.42067 | -122.28160 | 14764 ft | 375 kts | 136° |
| 2026-04-26 19:32 | 37.40215 | -122.25835 | 15588 ft | 376 kts | 137° |
| 2026-04-26 19:32 | 37.38354 | -122.23507 | 16148 ft | 382 kts | 137° |
| 2026-04-26 19:33 | 37.36448 | -122.21120 | 16720 ft | 388 kts | 137° |
| 2026-04-26 19:33 | 37.34523 | -122.18708 | 17327 ft | 392 kts | 137° |
| 2026-04-26 19:33 | 37.32581 | -122.16269 | 17937 ft | 397 kts | 137° |
| 2026-04-26 19:33 | 37.30619 | -122.13808 | 18487 ft | 401 kts | 137° |
| 2026-04-26 19:34 | 37.28637 | -122.11330 | 19006 ft | 404 kts | 137° |
| 2026-04-26 19:34 | 37.26636 | -122.08827 | 19554 ft | 407 kts | 137° |
| 2026-04-26 19:34 | 37.24619 | -122.06304 | 20079 ft | 411 kts | 137° |
| 2026-04-26 19:34 | 37.22584 | -122.03761 | 20648 ft | 414 kts | 137° |
| 2026-04-26 19:35 | 37.20538 | -122.01210 | 21202 ft | 417 kts | 137° |
| 2026-04-26 19:35 | 37.18473 | -121.98638 | 21744 ft | 420 kts | 137° |
| 2026-04-26 19:35 | 37.16395 | -121.96050 | 22259 ft | 423 kts | 137° |
| 2026-04-26 19:35 | 37.14298 | -121.93439 | 22781 ft | 426 kts | 137° |
| 2026-04-26 19:36 | 37.12185 | -121.90813 | 23305 ft | 429 kts | 137° |
| 2026-04-26 19:36 | 37.11470 | -121.89925 | 23470 ft | 430 kts | 137° |
| 2026-04-26 19:36 | 37.07913 | -121.85515 | 24193 ft | 435 kts | 137° |
| 2026-04-26 19:36 | 37.05753 | -121.82841 | 24609 ft | 438 kts | 137° |
| 2026-04-26 19:37 | 37.03579 | -121.80152 | 25027 ft | 441 kts | 137° |
| 2026-04-26 19:37 | 37.01396 | -121.77449 | 25420 ft | 444 kts | 138° |
| 2026-04-26 19:37 | 36.99194 | -121.74725 | 25810 ft | 446 kts | 138° |
| 2026-04-26 19:37 | 36.96983 | -121.71992 | 26222 ft | 448 kts | 138° |
| 2026-04-26 19:38 | 36.94759 | -121.69245 | 26625 ft | 451 kts | 138° |
| 2026-04-26 19:38 | 36.93278 | -121.67416 | 26884 ft | 453 kts | 138° |
| 2026-04-26 19:38 | 36.91031 | -121.64638 | 27281 ft | 455 kts | 138° |
| 2026-04-26 19:38 | 36.88772 | -121.61852 | 27654 ft | 458 kts | 138° |
| 2026-04-26 19:39 | 36.86496 | -121.59055 | 28027 ft | 461 kts | 138° |
| 2026-04-26 19:39 | 36.84202 | -121.56245 | 28404 ft | 462 kts | 137° |
| 2026-04-26 19:39 | 36.81903 | -121.53426 | 28795 ft | 464 kts | 137° |
| 2026-04-26 19:39 | 36.79596 | -121.50596 | 29167 ft | 467 kts | 137° |
| 2026-04-26 19:40 | 36.77275 | -121.47749 | 29560 ft | 469 kts | 137° |
| 2026-04-26 19:40 | 36.74943 | -121.44890 | 29867 ft | 471 kts | 137° |
| 2026-04-26 19:40 | 36.72599 | -121.42021 | 30175 ft | 474 kts | 138° |
| 2026-04-26 19:40 | 36.70240 | -121.39138 | 30446 ft | 476 kts | 137° |
| 2026-04-26 19:41 | 36.67877 | -121.36256 | 30783 ft | 477 kts | 137° |
| 2026-04-26 19:41 | 36.65500 | -121.33360 | 31112 ft | 478 kts | 138° |
| 2026-04-26 19:41 | 36.63127 | -121.30469 | 31507 ft | 477 kts | 138° |
| 2026-04-26 19:41 | 36.61561 | -121.28562 | 31801 ft | 476 kts | 138° |
| 2026-04-26 19:42 | 36.58403 | -121.24716 | 32393 ft | 474 kts | 138° |
| 2026-04-26 19:42 | 36.56048 | -121.21857 | 32835 ft | 472 kts | 139° |
| 2026-04-26 19:42 | 36.53703 | -121.19006 | 33256 ft | 471 kts | 139° |
| 2026-04-26 19:42 | 36.51364 | -121.16161 | 33695 ft | 469 kts | 139° |
| 2026-04-26 19:43 | 36.49033 | -121.13334 | 34107 ft | 468 kts | 139° |
| 2026-04-26 19:43 | 36.46703 | -121.10514 | 34452 ft | 467 kts | 139° |
| 2026-04-26 19:43 | 36.44373 | -121.07698 | 34757 ft | 467 kts | 139° |
| 2026-04-26 19:43 | 36.42136 | -121.04756 | 34971 ft | 471 kts | 134° |
| 2026-04-26 19:44 | 36.37909 | -120.98661 | 35028 ft | 462 kts | 134° |
| 2026-04-26 19:44 | 36.33726 | -120.92638 | 35027 ft | 460 kts | 134° |
| 2026-04-26 19:45 | 36.29563 | -120.86674 | 35024 ft | 460 kts | 134° |
| 2026-04-26 19:45 | 36.25369 | -120.80670 | 35025 ft | 460 kts | 134° |
| 2026-04-26 19:46 | 36.21181 | -120.74683 | 35011 ft | 460 kts | 135° |
| 2026-04-26 19:46 | 36.16983 | -120.68695 | 35018 ft | 460 kts | 135° |
| 2026-04-26 19:47 | 36.13466 | -120.63695 | 35018 ft | 460 kts | 135° |
| 2026-04-26 19:47 | 36.08582 | -120.56763 | 34998 ft | 460 kts | 135° |
| 2026-04-26 19:48 | 36.04381 | -120.50795 | 35006 ft | 460 kts | 135° |
| 2026-04-26 19:48 | 36.00181 | -120.44831 | 35013 ft | 460 kts | 135° |
| 2026-04-26 19:49 | 35.95977 | -120.38881 | 35024 ft | 460 kts | 135° |
| 2026-04-26 19:49 | 35.91764 | -120.32936 | 35008 ft | 460 kts | 135° |
| 2026-04-26 19:50 | 35.87475 | -120.27101 | 35012 ft | 456 kts | 142° |
| 2026-04-26 19:50 | 35.82364 | -120.22654 | 35017 ft | 448 kts | 153° |
| 2026-04-26 19:51 | 35.77038 | -120.18647 | 35012 ft | 449 kts | 153° |
| 2026-04-26 19:51 | 35.71716 | -120.14629 | 35003 ft | 449 kts | 153° |
| 2026-04-26 19:52 | 35.66396 | -120.10609 | 35016 ft | 449 kts | 153° |
| 2026-04-26 19:52 | 35.61070 | -120.06598 | 35016 ft | 449 kts | 153° |
| 2026-04-26 19:53 | 35.55749 | -120.02586 | 34999 ft | 449 kts | 153° |
| 2026-04-26 19:53 | 35.50428 | -119.98584 | 35007 ft | 449 kts | 153° |
| 2026-04-26 19:54 | 35.45138 | -119.94611 | 35011 ft | 449 kts | 153° |
| 2026-04-26 19:54 | 35.39814 | -119.90611 | 34997 ft | 449 kts | 153° |
| 2026-04-26 19:55 | 35.34494 | -119.86618 | 35003 ft | 449 kts | 153° |
| 2026-04-26 19:55 | 35.29173 | -119.82620 | 35010 ft | 450 kts | 151° |
| 2026-04-26 19:56 | 35.24143 | -119.77997 | 35009 ft | 453 kts | 147° |
| 2026-04-26 19:56 | 35.21609 | -119.75630 | 34793 ft | 464 kts | 147° |
| 2026-04-26 19:56 | 35.19025 | -119.73223 | 34561 ft | 469 kts | 147° |
| 2026-04-26 19:57 | 35.16435 | -119.70803 | 34320 ft | 468 kts | 147° |
| 2026-04-26 19:57 | 35.13854 | -119.68389 | 34078 ft | 466 kts | 147° |
| 2026-04-26 19:57 | 35.11285 | -119.65990 | 33480 ft | 464 kts | 147° |
| 2026-04-26 19:57 | 35.08730 | -119.63606 | 32907 ft | 460 kts | 147° |
| 2026-04-26 19:58 | 35.06194 | -119.61238 | 32328 ft | 458 kts | 147° |
| 2026-04-26 19:58 | 35.03672 | -119.58890 | 31726 ft | 455 kts | 147° |
| 2026-04-26 19:58 | 35.01161 | -119.56559 | 31173 ft | 452 kts | 147° |
| 2026-04-26 19:58 | 34.98668 | -119.54247 | 30607 ft | 450 kts | 146° |
| 2026-04-26 19:59 | 34.96182 | -119.51944 | 30039 ft | 448 kts | 146° |
| 2026-04-26 19:59 | 34.93708 | -119.49655 | 29430 ft | 445 kts | 146° |
| 2026-04-26 19:59 | 34.91257 | -119.47391 | 28873 ft | 440 kts | 146° |
| 2026-04-26 19:59 | 34.88826 | -119.45166 | 28433 ft | 434 kts | 146° |
| 2026-04-26 20:00 | 34.86415 | -119.42996 | 27974 ft | 428 kts | 147° |
| 2026-04-26 20:00 | 34.84031 | -119.40874 | 27532 ft | 423 kts | 147° |
| 2026-04-26 20:00 | 34.81663 | -119.38774 | 27099 ft | 419 kts | 147° |
| 2026-04-26 20:00 | 34.79319 | -119.36696 | 26644 ft | 416 kts | 147° |
| 2026-04-26 20:01 | 34.76988 | -119.34627 | 26208 ft | 413 kts | 147° |
| 2026-04-26 20:01 | 34.74678 | -119.32574 | 25774 ft | 410 kts | 147° |
| 2026-04-26 20:01 | 34.72377 | -119.30545 | 25344 ft | 407 kts | 147° |
| 2026-04-26 20:01 | 34.70085 | -119.28539 | 24906 ft | 405 kts | 147° |
| 2026-04-26 20:02 | 34.67807 | -119.26552 | 24484 ft | 402 kts | 147° |
| 2026-04-26 20:02 | 34.65542 | -119.24576 | 24062 ft | 400 kts | 147° |
| 2026-04-26 20:02 | 34.63280 | -119.22607 | 23568 ft | 399 kts | 147° |
| 2026-04-26 20:02 | 34.61785 | -119.21315 | 23177 ft | 398 kts | 147° |
| 2026-04-26 20:03 | 34.58776 | -119.18728 | 22503 ft | 394 kts | 147° |
| 2026-04-26 20:03 | 34.56552 | -119.16821 | 22013 ft | 391 kts | 147° |
| 2026-04-26 20:03 | 34.54342 | -119.14908 | 21513 ft | 389 kts | 147° |
| 2026-04-26 20:03 | 34.52157 | -119.12984 | 21030 ft | 387 kts | 146° |
| 2026-04-26 20:04 | 34.49993 | -119.11058 | 20531 ft | 385 kts | 146° |
| 2026-04-26 20:04 | 34.47865 | -119.09157 | 20060 ft | 383 kts | 146° |
| 2026-04-26 20:04 | 34.45695 | -119.07224 | 19575 ft | 382 kts | 146° |
| 2026-04-26 20:04 | 34.43582 | -119.05351 | 19100 ft | 381 kts | 146° |
| 2026-04-26 20:05 | 34.41436 | -119.03473 | 18625 ft | 380 kts | 147° |
| 2026-04-26 20:05 | 34.39294 | -119.01623 | 18124 ft | 378 kts | 147° |
| 2026-04-26 20:05 | 34.37153 | -118.99784 | 17658 ft | 375 kts | 147° |
| 2026-04-26 20:05 | 34.35032 | -118.97958 | 17145 ft | 373 kts | 147° |
| 2026-04-26 20:06 | 34.32932 | -118.96130 | 16632 ft | 373 kts | 146° |
| 2026-04-26 20:06 | 34.30854 | -118.94267 | 16129 ft | 372 kts | 145° |
| 2026-04-26 20:06 | 34.28813 | -118.92401 | 15926 ft | 362 kts | 144° |
| 2026-04-26 20:06 | 34.26848 | -118.90593 | 15789 ft | 347 kts | 145° |
| 2026-04-26 20:07 | 34.24949 | -118.88852 | 15462 ft | 339 kts | 145° |
| 2026-04-26 20:07 | 34.23080 | -118.87136 | 15023 ft | 336 kts | 145° |
| 2026-04-26 20:07 | 34.21226 | -118.85429 | 14569 ft | 334 kts | 145° |
| 2026-04-26 20:07 | 34.19386 | -118.83736 | 14132 ft | 332 kts | 145° |
| 2026-04-26 20:08 | 34.17554 | -118.82050 | 13670 ft | 330 kts | 145° |
| 2026-04-26 20:08 | 34.15767 | -118.80365 | 13376 ft | 321 kts | 142° |
| 2026-04-26 20:08 | 34.14089 | -118.78624 | 13009 ft | 317 kts | 140° |
| 2026-04-26 20:08 | 34.12465 | -118.76844 | 12586 ft | 313 kts | 140° |
| 2026-04-26 20:09 | 34.10872 | -118.75065 | 12150 ft | 311 kts | 140° |
| 2026-04-26 20:09 | 34.09291 | -118.73301 | 11717 ft | 308 kts | 140° |
| 2026-04-26 20:09 | 34.07715 | -118.71554 | 11280 ft | 307 kts | 141° |
| 2026-04-26 20:09 | 34.06142 | -118.69826 | 10934 ft | 305 kts | 141° |
| 2026-04-26 20:10 | 34.04605 | -118.68076 | 10628 ft | 305 kts | 133° |
| 2026-04-26 20:10 | 34.03417 | -118.65958 | 10322 ft | 306 kts | 117° |
| 2026-04-26 20:10 | 34.02734 | -118.63540 | 10010 ft | 305 kts | 100° |
| 2026-04-26 20:10 | 34.02491 | -118.61045 | 9869 ft | 294 kts | 96° |
| 2026-04-26 20:11 | 34.02268 | -118.58643 | 9735 ft | 283 kts | 97° |
| 2026-04-26 20:11 | 34.02041 | -118.56327 | 9596 ft | 273 kts | 97° |
| 2026-04-26 20:11 | 34.01822 | -118.54081 | 9349 ft | 268 kts | 97° |
| 2026-04-26 20:12 | 34.01388 | -118.49570 | 8233 ft | 283 kts | 96° |
| 2026-04-26 20:12 | 34.01159 | -118.47164 | 7667 ft | 291 kts | 96° |
| 2026-04-26 20:12 | 34.01185 | -118.44773 | 7435 ft | 282 kts | 79° |
| 2026-04-26 20:12 | 34.01562 | -118.42484 | 7033 ft | 282 kts | 77° |
| 2026-04-26 20:13 | 34.01959 | -118.40181 | 6672 ft | 279 kts | 77° |
| 2026-04-26 20:13 | 34.02352 | -118.37920 | 6451 ft | 269 kts | 77° |
| 2026-04-26 20:13 | 34.02727 | -118.35756 | 6278 ft | 249 kts | 80° |
| 2026-04-26 20:13 | 34.02999 | -118.33755 | 5753 ft | 245 kts | 84° |
| 2026-04-26 20:14 | 34.03212 | -118.31733 | 5197 ft | 241 kts | 85° |
| 2026-04-26 20:14 | 34.03407 | -118.29734 | 4625 ft | 238 kts | 84° |
| 2026-04-26 20:14 | 34.03604 | -118.27763 | 4022 ft | 236 kts | 85° |
| 2026-04-26 20:14 | 34.03807 | -118.25800 | 3391 ft | 235 kts | 83° |
| 2026-04-26 20:15 | 34.03998 | -118.23852 | 2952 ft | 233 kts | 88° |
| 2026-04-26 20:15 | 34.03659 | -118.21997 | 2687 ft | 227 kts | 125° |
| 2026-04-26 20:15 | 34.02566 | -118.20756 | 2606 ft | 210 kts | 158° |
| 2026-04-26 20:15 | 34.01195 | -118.20212 | 2619 ft | 207 kts | 169° |
| 2026-04-26 20:16 | 33.99800 | -118.20106 | 2605 ft | 195 kts | 195° |
| 2026-04-26 20:16 | 33.98628 | -118.20627 | 2592 ft | 167 kts | 214° |
| 2026-04-26 20:16 | 33.97787 | -118.21437 | 2594 ft | 149 kts | 229° |
| 2026-04-26 20:16 | 33.97217 | -118.22432 | 2591 ft | 141 kts | 244° |
| 2026-04-26 20:17 | 33.96905 | -118.23542 | 2599 ft | 140 kts | 257° |
| 2026-04-26 20:17 | 33.96783 | -118.24679 | 2537 ft | 135 kts | 261° |
| 2026-04-26 20:17 | 33.96667 | -118.25832 | 2485 ft | 137 kts | 262° |
| 2026-04-26 20:17 | 33.96591 | -118.26589 | 2392 ft | 134 kts | 261° |
| 2026-04-26 20:18 | 33.96442 | -118.28056 | 2172 ft | 132 kts | 262° |
| 2026-04-26 20:18 | 33.96332 | -118.29149 | 2004 ft | 130 kts | 262° |
| 2026-04-26 20:18 | 33.96222 | -118.30235 | 1824 ft | 132 kts | 262° |
| 2026-04-26 20:18 | 33.96112 | -118.31318 | 1658 ft | 130 kts | 261° |
| 2026-04-26 20:19 | 33.96001 | -118.32415 | 1474 ft | 132 kts | 263° |
| 2026-04-26 20:19 | 33.95891 | -118.33501 | 1295 ft | 130 kts | 263° |
| 2026-04-26 20:19 | 33.95781 | -118.34569 | 1138 ft | 128 kts | 261° |
| 2026-04-26 20:19 | 33.95668 | -118.35657 | 950 ft | 132 kts | 261° |
| 2026-04-26 20:20 | 33.95547 | -118.36764 | 734 ft | 133 kts | 263° |
| 2026-04-26 20:20 | 33.95454 | -118.37862 | 512 ft | 131 kts | 261° |
| 2026-04-26 20:20 | 33.95331 | -118.38942 | 333 ft | 130 kts | 259° |
| 2026-04-26 20:20 | 33.95237 | -118.40017 | 181 ft | 128 kts | 261° |
| 2026-04-26 20:21 | 33.95127 | -118.41072 | 102 ft | 123 kts | 259° |
| 2026-04-26 20:21 | 33.95030 | -118.41944 | 94 ft | 78 kts | 262° |
| 2026-04-26 20:21 | 33.94985 | -118.42375 | 94 ft | 33 kts | 262° |
| 2026-04-26 20:21 | 33.94904 | -118.42602 | 94 ft | 18 kts | 220° |
| 2026-04-26 20:22 | 33.94852 | -118.42678 | 98 ft | 0 kts | 227° |
| 2026-04-26 20:24 | 33.94832 | -118.42702 | 99 ft | 9 kts | 224° |
| 2026-04-26 20:24 | 33.94788 | -118.42744 | 98 ft | 7 kts | 214° |
| 2026-04-26 20:25 | 33.94700 | -118.42778 | 98 ft | 19 kts | 187° |
| 2026-04-26 20:25 | 33.94656 | -118.42777 | 96 ft | 19 kts | 174° |
| 2026-04-26 20:25 | 33.94567 | -118.42627 | 93 ft | 15 kts | 82° |
| 2026-04-26 20:25 | 33.94577 | -118.42522 | 95 ft | 0 kts | 83° |
| 2026-04-26 20:26 | 33.94578 | -118.42514 | 95 ft | 5 kts | 83° |
| 2026-04-26 20:26 | 33.94584 | -118.42460 | 93 ft | 12 kts | 83° |
| 2026-04-26 20:26 | 33.94597 | -118.42325 | 93 ft | 18 kts | 83° |
| 2026-04-26 20:27 | 33.94610 | -118.42185 | 93 ft | 16 kts | 84° |
| 2026-04-26 20:27 | 33.94621 | -118.42065 | 93 ft | 11 kts | 84° |
| 2026-04-26 20:27 | 33.94628 | -118.41974 | 96 ft | 11 kts | 86° |
| 2026-04-26 20:27 | 33.94630 | -118.41885 | 94 ft | 10 kts | 85° |
| 2026-04-26 20:28 | 33.94639 | -118.41799 | 93 ft | 11 kts | 81° |
| 2026-04-26 20:28 | 33.94651 | -118.41683 | 93 ft | 15 kts | 84° |
| 2026-04-26 20:28 | 33.94664 | -118.41549 | 96 ft | 17 kts | 83° |
| 2026-04-26 20:28 | 33.94678 | -118.41413 | 93 ft | 16 kts | 83° |
| 2026-04-26 20:29 | 33.94690 | -118.41286 | 96 ft | 15 kts | 84° |
| 2026-04-26 20:29 | 33.94717 | -118.41169 | 95 ft | 14 kts | 71° |
| 2026-04-26 20:29 | 33.94736 | -118.41057 | 94 ft | 13 kts | 82° |
| 2026-04-26 20:29 | 33.94744 | -118.40948 | 93 ft | 13 kts | 84° |
| 2026-04-26 20:30 | 33.94754 | -118.40842 | 93 ft | 13 kts | 83° |
| 2026-04-26 20:30 | 33.94754 | -118.40806 | 93 ft | 1 kts | 104° |
| 2026-04-26 20:30 | 33.94749 | -118.40799 | 93 ft | 1 kts | 127° |
| 2026-04-26 20:30 | 33.94739 | -118.40794 | 96 ft | 2 kts | 162° |
| 2026-04-26 20:31 | 33.94727 | -118.40790 | 93 ft | 2 kts | 163° |
| 2026-04-26 20:31 | 33.94715 | -118.40786 | 95 ft | 2 kts | 163° |
| 2026-04-26 20:31 | 33.94707 | -118.40783 | 95 ft | 0 kts | 163° |